Aérodrome :
LOGIN :

S'inscrire | Disclaimer

   EN    FR    IT 

 










Légende :    VFR   VFR Marginal   IFR   IFR Intensif   IFR Très Intensif
Visi : 
Plafond : 
>= 8 km
>= 3000ft
5 à 8 km
1000 à 3000 ft
1500m à 5 km
500 à 1000 ft
800 à 1500m
200 à 500 ft
< 800m
< 200 ft
Symboles :   Orages  Brouillard  Fortes neiges  Fortes précipitations  Vent > 20 kt
SIGMETs :   Divers  Orages  Givrage  Turbulence  Onde Orograph.  Cendres Volcan.






- Altitude de l'aérodrome : 106 ft
- Code IATA : NRN


EDLV - Weeze

DERNIER METAR :
  • 202020Z 29016KT 260V320 5000 -RA SCT016 BKN040 06/03 Q1011 RERA

METARs EXPIRÉS :
  • 201950Z 28015KT 2900 RA BKN012 06/05 Q1010
  • 201920Z 28016KT 2600 RA BKN014CB 07/05 Q1009
  • 201850Z 21016KT 9999 -RA BKN016 09/07 Q1007
  • 201820Z 21017KT 9999 -RA BKN021 10/06 Q1007

TAF TAF EDLV
Valide du 20 à 18h jusqu'au 21 à 18h UTC


201700Z 2018/2118 21020G30KT 9999 BKN025
BECMG 2018/2021 28015G30KT
TEMPO 2018/2021 29025G45KT 4000 +SHRA BKN012TCU
TEMPO 2021/2023 SHRA BKN015TCU
BECMG 2023/2102 23012KT
BECMG 2109/2112 24015G25KT



MET'MAP, la Météo Aéronautique d'un coup d'oeil ! - Copyright ORBIFLY Décembre 2007 - Disclaimer

ORBIFLY MET'MAP TEAM :

Programmation & Développement : Alexandra Zaïnal
Sur une idée originale de : Baudouin d'Aumeries
Assistance à la programmation : Marc-Olivier Méhu
Soutien technique & logistique : Manuel Goepfert

Contact : metmap@orbifly.com




SOURCES & CREDITS :

   NOAA